Time;durP1;ratioP1;P1;durP2;ratioP2;P2;SDS_P1;SDS_P2;PMS_P1;PMS_P2;Temp;Humidity;BMP_temperature;BMP_pressure;BME280_temperature;BME280_humidity;BME280_pressure;Samples;Min_cycle;Max_cycle;Signal;HPM_P1;HPM_P2
2023/03/05 00:01:24;;;;;;;45.10;20.40;;;3.00;73.40;;;;;;4974764;28;20096;-60
2023/03/05 00:03:52;;;;;;;47.90;20.48;;;3.00;73.80;;;;;;4974862;28;20399;-60
2023/03/05 00:06:22;;;;;;;47.45;20.90;;;3.00;73.40;;;;;;4975887;28;20038;-59
2023/03/05 00:08:50;;;;;;;45.92;20.60;;;3.00;73.60;;;;;;4974563;28;20043;-61
2023/03/05 00:11:15;;;;;;;46.92;21.10;;;3.00;73.60;;;;;;4972446;28;20657;-60
2023/03/05 00:13:41;;;;;;;48.60;20.45;;;3.00;73.60;;;;;;4978098;28;20041;-60
2023/03/05 00:16:13;;;;;;;52.38;20.75;;;3.00;73.60;;;;;;4977257;28;20030;-61
2023/03/05 00:18:39;;;;;;;43.53;19.85;;;2.90;73.60;;;;;;4977097;28;20041;-58
2023/03/05 00:21:17;;;;;;;46.25;20.75;;;3.00;73.60;;;;;;4979425;28;20098;-58
2023/03/05 00:23:43;;;;;;;49.13;20.98;;;3.00;73.80;;;;;;4978180;28;20142;-59
2023/03/05 00:26:08;;;;;;;45.65;19.77;;;3.00;73.50;;;;;;4975321;28;20119;-59
2023/03/05 00:28:34;;;;;;;45.17;20.48;;;3.00;73.50;;;;;;4974290;28;20043;-61
2023/03/05 00:31:00;;;;;;;42.10;18.33;;;3.00;73.60;;;;;;4972564;28;20134;-60
2023/03/05 00:33:26;;;;;;;50.28;21.38;;;3.00;73.80;;;;;;4975775;28;20494;-58
2023/03/05 00:35:52;;;;;;;51.38;21.60;;;3.00;73.80;;;;;;4975448;28;20049;-61
2023/03/05 00:38:18;;;;;;;46.88;21.02;;;3.00;73.80;;;;;;4975167;28;20034;-60
2023/03/05 00:40:43;;;;;;;45.30;21.17;;;3.00;73.80;;;;;;4972344;28;20402;-61
2023/03/05 00:43:09;;;;;;;49.80;19.85;;;3.00;73.90;;;;;;4974783;28;20045;-60
2023/03/05 00:45:35;;;;;;;39.83;18.50;;;3.00;73.90;;;;;;4975796;28;20065;-60
2023/03/05 00:48:01;;;;;;;43.80;19.52;;;3.00;74.00;;;;;;4974565;28;20065;-61
2023/03/05 00:50:27;;;;;;;42.63;20.20;;;3.00;74.00;;;;;;4965474;28;20565;-60
2023/03/05 00:52:53;;;;;;;45.63;19.50;;;3.00;74.00;;;;;;4960466;28;20046;-60
2023/03/05 00:55:19;;;;;;;45.85;19.55;;;3.00;74.10;;;;;;4960156;28;20076;-60
2023/03/05 00:57:44;;;;;;;41.92;19.63;;;3.00;74.10;;;;;;4964016;28;20038;-60
2023/03/05 01:00:11;;;;;;;43.47;19.00;;;3.00;74.10;;;;;;4964785;28;20118;-61
2023/03/05 01:02:37;;;;;;;44.90;20.13;;;3.00;74.10;;;;;;4963044;28;20110;-58
2023/03/05 01:05:03;;;;;;;41.00;18.52;;;3.10;74.10;;;;;;4962532;28;20452;-59
2023/03/05 01:07:28;;;;;;;44.25;20.42;;;3.10;74.10;;;;;;4964330;28;20038;-59
2023/03/05 01:09:54;;;;;;;42.08;19.67;;;3.10;74.00;;;;;;4969197;28;20498;-59
2023/03/05 01:12:19;;;;;;;41.85;19.65;;;3.10;74.00;;;;;;4962683;28;20042;-61
2023/03/05 01:14:45;;;;;;;44.58;19.40;;;3.20;74.00;;;;;;4952650;28;20047;-60
2023/03/05 01:17:10;;;;;;;45.53;19.55;;;3.20;73.90;;;;;;4964463;28;20034;-59
2023/03/05 01:19:36;;;;;;;41.70;19.10;;;3.20;73.80;;;;;;4964650;28;20048;-60
2023/03/05 01:22:02;;;;;;;38.00;18.77;;;3.20;73.80;;;;;;4965931;28;20068;-59
2023/03/05 01:24:29;;;;;;;43.30;19.60;;;3.20;73.60;;;;;;4967614;28;20039;-58
2023/03/05 01:26:54;;;;;;;46.28;18.50;;;3.20;73.60;;;;;;4962159;28;20057;-58
2023/03/05 01:29:20;;;;;;;43.97;19.85;;;3.20;73.60;;;;;;4961293;28;20414;-61
2023/03/05 01:31:45;;;;;;;42.15;19.00;;;3.10;73.50;;;;;;4962309;28;20034;-57
2023/03/05 01:34:12;;;;;;;39.47;18.98;;;3.10;73.50;;;;;;4962653;28;20046;-59
2023/03/05 01:36:40;;;;;;;43.60;19.90;;;3.20;74.40;;;;;;4964488;28;20038;-60
2023/03/05 01:39:06;;;;;;;42.35;17.77;;;3.10;73.50;;;;;;4963466;28;20404;-59
2023/03/05 01:41:32;;;;;;;40.85;18.52;;;3.10;73.40;;;;;;4972951;28;20046;-59
2023/03/05 01:43:59;;;;;;;40.85;18.38;;;3.10;73.50;;;;;;4970103;28;20031;-58
2023/03/05 01:46:33;;;;;;;40.95;18.88;;;3.10;73.50;;;;;;4966307;28;20034;-60
2023/03/05 01:49:04;;;;;;;;;;;3.10;73.50;;;;;;4971682;28;20150;-59
2023/03/05 01:51:35;;;;;;;35.72;16.73;;;3.10;73.80;;;;;;4966974;28;19956;-59
2023/03/05 01:54:02;;;;;;;38.65;17.95;;;3.10;73.50;;;;;;4967901;28;20039;-59
2023/03/05 01:56:29;;;;;;;44.97;19.17;;;3.10;73.40;;;;;;4964685;28;20162;-57
2023/03/05 01:59:02;;;;;;;47.40;19.75;;;3.10;73.60;;;;;;4963423;28;20506;-58
2023/03/05 02:01:30;;;;;;;48.40;19.30;;;3.10;73.60;;;;;;4965836;28;20545;-59
2023/03/05 02:03:55;;;;;;;44.15;20.25;;;3.10;73.60;;;;;;4967204;28;20232;-59
2023/03/05 02:06:21;;;;;;;39.90;18.52;;;3.00;73.60;;;;;;4970241;28;20077;-58
2023/03/05 02:08:47;;;;;;;43.35;19.63;;;3.10;73.80;;;;;;4962722;28;20038;-59
2023/03/05 02:11:12;;;;;;;45.75;20.15;;;3.00;73.70;;;;;;4974464;28;20031;-56
2023/03/05 02:13:39;;;;;;;42.80;18.75;;;3.00;73.70;;;;;;4969038;28;20129;-58
2023/03/05 02:16:05;;;;;;;43.38;18.58;;;3.00;73.80;;;;;;4974914;28;20424;-58
2023/03/05 02:18:31;;;;;;;46.80;19.85;;;3.10;73.90;;;;;;4975372;28;20092;-57
2023/03/05 02:20:56;;;;;;;45.97;19.40;;;3.10;74.00;;;;;;4975299;28;20045;-58
2023/03/05 02:23:26;;;;;;;45.60;19.58;;;3.10;74.00;;;;;;4977516;28;20051;-58
2023/03/05 02:25:52;;;;;;;39.05;18.95;;;3.10;75.00;;;;;;4966291;28;20824;-57
2023/03/05 02:28:27;;;;;;;43.95;19.90;;;3.10;74.20;;;;;;4963226;28;20142;-59
2023/03/05 02:30:53;;;;;;;38.40;17.98;;;3.10;74.40;;;;;;4968682;28;20062;-58
2023/03/05 02:33:20;;;;;;;43.80;19.38;;;3.10;74.30;;;;;;4972380;28;20131;-58
2023/03/05 02:35:46;;;;;;;45.85;19.80;;;3.10;74.40;;;;;;4972683;28;20509;-59
2023/03/05 02:38:13;;;;;;;38.38;18.00;;;3.10;74.40;;;;;;4961331;28;20394;-61
2023/03/05 02:40:39;;;;;;;39.72;19.08;;;3.10;74.30;;;;;;4969893;28;20067;-62
2023/03/05 02:43:05;;;;;;;41.90;19.23;;;3.20;74.40;;;;;;4969503;28;20042;-61
2023/03/05 02:45:30;;;;;;;44.22;19.15;;;3.20;74.30;;;;;;4969022;28;20046;-61
2023/03/05 02:47:56;;;;;;;43.45;18.48;;;3.20;74.30;;;;;;4971562;28;20046;-60
2023/03/05 02:50:22;;;;;;;42.17;19.00;;;3.20;74.30;;;;;;4971272;28;20060;-60
2023/03/05 02:52:48;;;;;;;37.92;17.85;;;3.20;74.30;;;;;;4971811;28;20510;-59
2023/03/05 02:55:14;;;;;;;42.17;18.80;;;3.20;74.40;;;;;;4966923;28;20038;-60
2023/03/05 02:57:40;;;;;;;38.60;18.58;;;3.20;74.50;;;;;;4972316;28;20145;-61
2023/03/05 03:00:06;;;;;;;40.35;18.90;;;3.20;74.50;;;;;;4973202;28;20125;-59
2023/03/05 03:02:32;;;;;;;44.38;18.75;;;3.20;74.60;;;;;;4966615;28;20074;-59
2023/03/05 03:04:57;;;;;;;42.25;18.80;;;3.20;74.50;;;;;;4970968;28;20062;-59
2023/03/05 03:07:23;;;;;;;42.22;18.83;;;3.20;74.50;;;;;;4970484;28;20034;-60
2023/03/05 03:09:48;;;;;;;45.80;18.65;;;3.20;74.50;;;;;;4969028;28;20243;-59
2023/03/05 03:12:14;;;;;;;43.60;18.75;;;3.20;74.50;;;;;;4974943;28;20033;-59
2023/03/05 03:14:41;;;;;;;43.42;20.40;;;3.30;74.60;;;;;;4967175;28;20545;-59
2023/03/05 03:17:17;;;;;;;46.55;20.50;;;3.20;74.60;;;;;;4969784;28;20615;-59
2023/03/05 03:19:43;;;;;;;44.13;19.33;;;3.20;74.60;;;;;;4970475;28;20050;-59
2023/03/05 03:22:10;;;;;;;43.80;20.20;;;3.30;74.50;;;;;;4974489;28;20426;-59
2023/03/05 03:24:37;;;;;;;45.33;20.30;;;3.30;74.50;;;;;;4968358;28;20125;-58
2023/03/05 03:27:03;;;;;;;44.30;19.35;;;3.30;74.50;;;;;;4973751;28;20434;-56
2023/03/05 03:29:29;;;;;;;46.13;19.85;;;3.30;74.60;;;;;;4969498;28;20046;-58
2023/03/05 03:31:54;;;;;;;42.75;19.80;;;3.30;74.60;;;;;;4971885;28;20053;-59
2023/03/05 03:34:20;;;;;;;43.95;19.67;;;3.30;74.50;;;;;;4971511;28;20088;-60
2023/03/05 03:36:48;;;;;;;41.50;19.52;;;3.30;74.60;;;;;;4955517;28;20054;-59
2023/03/05 03:39:14;;;;;;;45.35;20.02;;;3.30;74.60;;;;;;4961162;28;20038;-58
2023/03/05 03:41:42;;;;;;;43.88;20.08;;;3.30;74.60;;;;;;4969533;28;20397;-60
2023/03/05 03:44:09;;;;;;;47.13;20.88;;;3.30;74.70;;;;;;4968533;28;20131;-61
2023/03/05 03:46:35;;;;;;;48.10;20.70;;;3.30;74.70;;;;;;4969057;28;20034;-59
2023/03/05 03:49:02;;;;;;;47.22;20.45;;;3.30;74.70;;;;;;4971495;28;20094;-61
2023/03/05 03:51:27;;;;;;;44.47;20.42;;;3.30;74.80;;;;;;4973396;28;20038;-59
2023/03/05 03:53:53;;;;;;;45.45;19.65;;;3.30;74.80;;;;;;4974016;28;20042;-60
2023/03/05 03:56:20;;;;;;;46.65;21.00;;;3.30;74.70;;;;;;4973184;28;20561;-58
2023/03/05 03:58:49;;;;;;;45.10;20.15;;;3.40;74.80;;;;;;4965644;28;20053;-59
2023/03/05 04:01:15;;;;;;;49.03;20.35;;;3.30;74.90;;;;;;4960954;28;20150;-58
2023/03/05 04:03:41;;;;;;;47.05;21.05;;;3.30;74.80;;;;;;4965951;28;20121;-59
2023/03/05 04:06:06;;;;;;;49.63;20.25;;;3.40;74.80;;;;;;4973169;28;20117;-60
2023/03/05 04:08:32;;;;;;;43.15;19.38;;;3.40;74.80;;;;;;4967946;28;20410;-60
2023/03/05 04:11:00;;;;;;;43.38;20.17;;;3.40;74.80;;;;;;4965016;28;20523;-59
2023/03/05 04:13:26;;;;;;;43.53;19.83;;;3.40;74.70;;;;;;4971267;28;20043;-61
2023/03/05 04:15:52;;;;;;;45.88;20.13;;;3.40;75.10;;;;;;4965323;28;20166;-59
2023/03/05 04:18:18;;;;;;;44.45;20.02;;;3.40;74.60;;;;;;4963854;28;20039;-60
2023/03/05 04:20:43;;;;;;;41.33;19.00;;;3.40;74.70;;;;;;4964482;28;20080;-60
2023/03/05 04:23:09;;;;;;;37.45;17.17;;;3.40;74.80;;;;;;4964576;28;20575;-60
2023/03/05 04:25:34;;;;;;;38.83;18.13;;;3.40;74.80;;;;;;4964453;28;20503;-59
2023/03/05 04:28:01;;;;;;;39.25;16.95;;;3.40;74.80;;;;;;4964785;28;20077;-59
2023/03/05 04:30:27;;;;;;;42.85;18.75;;;3.40;74.70;;;;;;4965551;28;20055;-59
2023/03/05 04:32:52;;;;;;;41.25;18.95;;;3.50;74.70;;;;;;4966867;28;20674;-59
2023/03/05 04:35:18;;;;;;;40.63;17.80;;;3.50;74.60;;;;;;4968716;28;20443;-58
2023/03/05 04:37:43;;;;;;;40.58;18.33;;;3.50;74.60;;;;;;4970193;28;20038;-59
2023/03/05 04:40:10;;;;;;;38.33;17.55;;;3.50;74.50;;;;;;4971663;28;20035;-61
2023/03/05 04:42:35;;;;;;;43.95;19.05;;;3.50;74.50;;;;;;4965194;28;20530;-60
2023/03/05 04:45:01;;;;;;;42.53;17.90;;;3.50;74.50;;;;;;4969417;28;20042;-61
2023/03/05 04:47:27;;;;;;;42.42;17.85;;;3.50;74.30;;;;;;4970041;28;20405;-61
2023/03/05 04:49:52;;;;;;;39.67;18.60;;;3.50;74.30;;;;;;4964265;28;20485;-61
2023/03/05 04:52:18;;;;;;;44.92;18.45;;;3.50;74.30;;;;;;4968552;28;20043;-60
2023/03/05 04:54:44;;;;;;;39.97;18.63;;;3.50;74.30;;;;;;4968843;28;20037;-58
2023/03/05 04:57:09;;;;;;;40.03;18.23;;;3.50;74.40;;;;;;4969147;28;20041;-57
2023/03/05 04:59:36;;;;;;;43.30;19.58;;;3.50;74.40;;;;;;4959358;28;20039;-61
2023/03/05 05:02:02;;;;;;;40.10;18.75;;;3.50;74.30;;;;;;4968824;28;20494;-59
2023/03/05 05:04:28;;;;;;;42.15;18.83;;;3.50;74.30;;;;;;4964619;28;20041;-59
2023/03/05 05:06:55;;;;;;;39.65;18.45;;;3.50;74.40;;;;;;4962890;28;20335;-60
2023/03/05 05:09:21;;;;;;;42.55;18.15;;;3.50;74.40;;;;;;4961592;28;20411;-60
2023/03/05 05:11:46;;;;;;;39.97;17.88;;;3.50;74.40;;;;;;4966108;28;20038;-61
2023/03/05 05:14:12;;;;;;;38.33;18.38;;;3.50;74.50;;;;;;4964169;28;20069;-58
2023/03/05 05:16:38;;;;;;;39.47;17.73;;;3.60;74.50;;;;;;4966712;28;20046;-59
2023/03/05 05:19:03;;;;;;;39.50;17.45;;;3.60;74.40;;;;;;4964755;28;20502;-60
2023/03/05 05:21:29;;;;;;;39.97;17.92;;;3.60;74.30;;;;;;4967898;28;20034;-59
2023/03/05 05:23:54;;;;;;;37.92;17.00;;;3.60;74.30;;;;;;4967867;28;20047;-60
2023/03/05 05:26:20;;;;;;;38.13;17.25;;;3.60;74.20;;;;;;4968166;28;20034;-57
2023/03/05 05:28:45;;;;;;;89.88;29.85;;;3.60;74.20;;;;;;4966175;28;20126;-58
2023/03/05 05:31:14;;;;;;;125.85;48.05;;;3.60;74.10;;;;;;4969106;28;20035;-59
2023/03/05 05:33:40;;;;;;;50.92;23.40;;;3.60;74.10;;;;;;4965730;28;20425;-57
2023/03/05 05:36:08;;;;;;;43.22;19.40;;;3.60;74.10;;;;;;4963787;28;20034;-60
2023/03/05 05:38:33;;;;;;;40.92;19.85;;;3.60;74.10;;;;;;4968593;28;20068;-60
2023/03/05 05:41:14;;;;;;;44.15;19.90;;;3.60;74.10;;;;;;4970316;28;20042;-59
2023/03/05 05:43:40;;;;;;;40.10;19.90;;;3.60;74.30;;;;;;4965161;28;20113;-60
2023/03/05 05:46:09;;;;;;;41.83;18.83;;;3.60;74.10;;;;;;4960870;28;20066;-59
2023/03/05 05:48:35;;;;;;;40.60;19.15;;;3.60;74.10;;;;;;4955458;28;20043;-58
2023/03/05 05:51:07;;;;;;;39.97;18.85;;;3.60;74.20;;;;;;4971651;28;20069;-59
2023/03/05 05:53:33;;;;;;;42.92;20.33;;;3.60;74.10;;;;;;4967514;28;20058;-60
2023/03/05 05:55:59;;;;;;;43.55;18.02;;;3.70;75.00;;;;;;4972361;28;20039;-60
2023/03/05 05:58:25;;;;;;;39.65;17.55;;;3.60;74.10;;;;;;4969196;28;20069;-59
2023/03/05 06:00:50;;;;;;;35.92;18.00;;;3.70;74.30;;;;;;4956670;28;20074;-59
2023/03/05 06:03:16;;;;;;;38.75;17.13;;;3.70;74.10;;;;;;4970613;28;20054;-58
2023/03/05 06:05:41;;;;;;;34.60;17.23;;;3.70;74.10;;;;;;4964376;28;20428;-58
2023/03/05 06:08:08;;;;;;;39.92;16.90;;;3.70;75.00;;;;;;4976986;28;20049;-59
2023/03/05 06:10:33;;;;;;;36.95;17.13;;;3.70;74.10;;;;;;4975315;28;20462;-59
2023/03/05 06:12:59;;;;;;;34.22;16.13;;;3.70;74.10;;;;;;4975141;28;20117;-59
2023/03/05 06:15:25;;;;;;;38.22;17.02;;;3.70;74.10;;;;;;4978638;28;20057;-56
2023/03/05 06:17:51;;;;;;;36.95;16.45;;;3.70;74.10;;;;;;4980130;28;20422;-59
2023/03/05 06:20:17;;;;;;;42.47;19.45;;;3.70;74.10;;;;;;4980734;28;20117;-59
2023/03/05 06:22:43;;;;;;;48.30;23.30;;;3.70;74.00;;;;;;4979700;28;20044;-58
2023/03/05 06:25:09;;;;;;;38.80;19.15;;;3.80;74.10;;;;;;4973854;28;20047;-60
2023/03/05 06:27:35;;;;;;;34.17;16.10;;;3.80;74.10;;;;;;4966747;28;20023;-59
2023/03/05 06:30:01;;;;;;;30.50;15.10;;;3.80;74.10;;;;;;4965755;28;20060;-58
2023/03/05 06:32:27;;;;;;;38.75;16.17;;;3.80;74.10;;;;;;4965532;28;20066;-61
2023/03/05 06:34:53;;;;;;;37.30;15.65;;;3.80;74.10;;;;;;4971267;28;20545;-61
2023/03/05 06:37:18;;;;;;;35.80;15.70;;;3.80;74.00;;;;;;4967587;28;20031;-60
2023/03/05 06:39:44;;;;;;;34.55;15.40;;;3.80;74.00;;;;;;4971245;28;22552;-58
2023/03/05 06:42:10;;;;;;;35.35;15.82;;;3.80;74.00;;;;;;4974320;28;20042;-60
2023/03/05 06:44:40;;;;;;;35.85;15.82;;;3.80;74.10;;;;;;4968935;28;20046;-58
2023/03/05 06:47:08;;;;;;;36.53;15.85;;;3.80;74.20;;;;;;4967117;28;20410;-59
2023/03/05 06:49:33;;;;;;;33.83;15.23;;;3.80;74.20;;;;;;4965649;28;20038;-60
2023/03/05 06:52:00;;;;;;;35.60;16.15;;;3.80;74.10;;;;;;4972560;28;20046;-61
2023/03/05 06:54:26;;;;;;;32.45;14.82;;;3.80;74.20;;;;;;4969552;28;20030;-60
2023/03/05 06:56:51;;;;;;;36.55;15.32;;;3.80;74.20;;;;;;4966887;28;20525;-60
2023/03/05 06:59:17;;;;;;;32.05;15.57;;;3.90;74.20;;;;;;4961772;28;20532;-58
2023/03/05 07:01:43;;;;;;;33.45;14.63;;;3.90;74.10;;;;;;4973388;28;20046;-57
2023/03/05 07:04:10;;;;;;;32.10;14.65;;;3.90;74.10;;;;;;4970125;28;20514;-60
2023/03/05 07:06:37;;;;;;;31.90;15.20;;;3.90;74.20;;;;;;4968714;28;20042;-59
2023/03/05 07:09:05;;;;;;;34.55;14.68;;;3.90;74.10;;;;;;4964448;28;20121;-58
2023/03/05 07:11:31;;;;;;;32.90;14.38;;;3.90;74.30;;;;;;4964026;28;20089;-59
2023/03/05 07:13:57;;;;;;;33.30;15.25;;;3.90;74.30;;;;;;4961181;28;20577;-61
2023/03/05 07:16:26;;;;;;;31.35;14.40;;;3.90;74.30;;;;;;4963070;28;20042;-61
2023/03/05 07:18:52;;;;;;;33.45;14.73;;;3.90;74.30;;;;;;4962965;28;22367;-58
2023/03/05 07:21:23;;;;;;;49.45;23.15;;;3.90;74.30;;;;;;4967306;28;20062;-61
2023/03/05 07:23:49;;;;;;;50.10;24.58;;;3.90;74.30;;;;;;4967824;28;20050;-61
2023/03/05 07:26:15;;;;;;;56.33;23.90;;;3.90;74.30;;;;;;4965939;28;20680;-61
2023/03/05 07:28:42;;;;;;;57.35;23.33;;;4.00;74.50;;;;;;4961362;28;20046;-60
2023/03/05 07:31:12;;;;;;;50.03;21.02;;;4.00;74.60;;;;;;4963491;28;20537;-59
2023/03/05 07:33:38;;;;;;;47.67;20.52;;;4.00;74.60;;;;;;4969382;28;20053;-59
2023/03/05 07:36:07;;;;;;;43.35;19.75;;;4.00;74.60;;;;;;4969728;28;20039;-59
2023/03/05 07:38:33;;;;;;;43.95;19.55;;;4.00;74.60;;;;;;4964013;28;20045;-61
2023/03/05 07:41:10;;;;;;;41.15;17.85;;;4.00;74.60;;;;;;4964434;28;20039;-59
2023/03/05 07:43:35;;;;;;;37.70;18.40;;;4.10;74.80;;;;;;4963010;28;20169;-59
2023/03/05 07:46:06;;;;;;;38.40;18.45;;;4.10;74.80;;;;;;4970252;28;20508;-60
2023/03/05 07:48:31;;;;;;;39.35;18.98;;;4.10;74.90;;;;;;4965673;28;20050;-59
2023/03/05 07:51:09;;;;;;;37.92;18.45;;;4.10;74.80;;;;;;4971168;28;20041;-60
2023/03/05 07:53:35;;;;;;;39.10;17.52;;;4.20;74.90;;;;;;4965782;28;20054;-59
2023/03/05 07:56:01;;;;;;;35.97;17.35;;;4.10;75.70;;;;;;4964413;28;20430;-58
2023/03/05 07:58:27;;;;;;;32.97;16.13;;;4.20;74.80;;;;;;4963270;28;20133;-59
2023/03/05 08:00:52;;;;;;;38.80;18.58;;;4.20;74.80;;;;;;4965852;28;20766;-58
2023/03/05 08:03:18;;;;;;;35.80;16.98;;;4.20;75.70;;;;;;4960701;28;20034;-60
2023/03/05 08:05:44;;;;;;;36.60;17.05;;;4.30;74.80;;;;;;4968704;28;20042;-57
2023/03/05 08:08:10;;;;;;;39.45;18.77;;;4.30;74.80;;;;;;4966093;28;20039;-59
2023/03/05 08:10:36;;;;;;;38.40;18.75;;;4.30;74.90;;;;;;4969283;28;20406;-58
2023/03/05 08:13:01;;;;;;;30.70;15.45;;;4.30;74.90;;;;;;4974808;28;20047;-59
2023/03/05 08:15:27;;;;;;;26.83;12.70;;;4.40;75.00;;;;;;4967073;28;20035;-61
2023/03/05 08:17:53;;;;;;;31.35;14.90;;;4.40;74.80;;;;;;4976076;28;20750;-60
2023/03/05 08:20:18;;;;;;;33.75;16.05;;;4.40;74.60;;;;;;4971260;28;20414;-58
2023/03/05 08:22:45;;;;;;;37.10;16.67;;;4.40;74.50;;;;;;4973604;28;20046;-61
2023/03/05 08:25:11;;;;;;;34.80;16.17;;;4.50;74.50;;;;;;4973676;28;20033;-60
2023/03/05 08:27:41;;;;;;;28.73;13.68;;;4.50;74.50;;;;;;4975283;28;20030;-61
2023/03/05 08:30:08;;;;;;;27.63;12.32;;;4.50;74.40;;;;;;4969606;28;20049;-59
2023/03/05 08:32:34;;;;;;;23.00;12.10;;;4.50;74.40;;;;;;4975504;28;20042;-61
2023/03/05 08:35:01;;;;;;;23.05;11.93;;;4.60;74.50;;;;;;4974822;28;20046;-62
2023/03/05 08:37:27;;;;;;;23.38;10.90;;;4.60;74.40;;;;;;4973912;28;20039;-62
2023/03/05 08:39:55;;;;;;;23.00;11.13;;;4.60;74.20;;;;;;4970902;28;20093;-59
2023/03/05 08:42:20;;;;;;;22.42;10.27;;;4.60;74.10;;;;;;4970251;28;20035;-60
2023/03/05 08:44:46;;;;;;;22.17;11.25;;;4.70;74.30;;;;;;4975173;28;20062;-60
2023/03/05 08:47:11;;;;;;;21.30;10.57;;;4.70;74.20;;;;;;4975154;28;20039;-59
2023/03/05 08:49:37;;;;;;;21.08;10.18;;;4.70;74.00;;;;;;4977259;28;20038;-60
2023/03/05 08:52:03;;;;;;;24.40;10.80;;;4.70;73.90;;;;;;4972349;28;20038;-59
2023/03/05 08:54:28;;;;;;;19.73;10.05;;;4.70;73.90;;;;;;4973642;28;20084;-60
2023/03/05 08:56:54;;;;;;;20.67;10.43;;;4.80;73.90;;;;;;4972006;28;20605;-60
2023/03/05 08:59:19;;;;;;;22.25;10.82;;;4.80;73.90;;;;;;4968781;28;20387;-60
2023/03/05 09:01:45;;;;;;;19.75;10.25;;;4.80;73.90;;;;;;4973720;28;20078;-59
2023/03/05 09:04:10;;;;;;;23.90;10.45;;;4.80;73.80;;;;;;4969906;28;20034;-61
2023/03/05 09:06:39;;;;;;;20.38;10.25;;;4.80;73.70;;;;;;4971271;28;20042;-60
2023/03/05 09:09:08;;;;;;;20.05;9.40;;;4.90;73.70;;;;;;4966114;28;20038;-59
2023/03/05 09:11:35;;;;;;;22.65;10.27;;;4.90;73.80;;;;;;4971303;28;20035;-61
2023/03/05 09:14:02;;;;;;;21.70;9.85;;;4.90;73.70;;;;;;4968525;28;20043;-60
2023/03/05 09:16:28;;;;;;;21.30;10.02;;;4.90;73.60;;;;;;4972199;28;20474;-56
2023/03/05 09:18:53;;;;;;;20.73;10.32;;;4.90;73.60;;;;;;4970036;28;20031;-56
2023/03/05 09:21:19;;;;;;;25.88;12.18;;;5.00;73.70;;;;;;4977649;28;20525;-60
2023/03/05 09:23:46;;;;;;;24.33;11.82;;;5.00;73.70;;;;;;4968585;28;20445;-58
2023/03/05 09:26:14;;;;;;;20.65;10.88;;;5.00;73.60;;;;;;4970215;28;20050;-60
2023/03/05 09:28:40;;;;;;;22.00;11.23;;;5.10;73.60;;;;;;4970875;28;20138;-61
2023/03/05 09:31:07;;;;;;;21.83;10.75;;;5.10;73.60;;;;;;4971834;28;20703;-59
2023/03/05 09:33:34;;;;;;;24.70;11.23;;;5.10;73.60;;;;;;4974245;28;20609;-62
2023/03/05 09:36:01;;;;;;;23.23;11.70;;;5.10;73.60;;;;;;4974973;28;20046;-60
2023/03/05 09:38:27;;;;;;;20.05;10.48;;;5.10;73.60;;;;;;4970676;28;20077;-61
2023/03/05 09:41:13;;;;;;;22.83;13.63;;;5.20;73.80;;;;;;4981869;28;20046;-59
2023/03/05 09:44:16;;;;;;;24.08;10.70;;;5.20;73.60;;;;;;4962268;28;20042;-61
2023/03/05 09:46:54;;;;;;;19.73;10.73;;;5.20;73.60;;;;;;4946347;28;20039;-61
2023/03/05 09:50:00;;;;;;;22.75;11.65;;;5.30;73.60;;;;;;4972188;28;20038;-61
2023/03/05 09:52:50;;;;;;;24.05;11.73;;;5.30;73.40;;;;;;4975700;28;20034;-60
2023/03/05 09:55:28;;;;;;;28.60;15.52;;;5.30;73.50;;;;;;4979203;28;20045;-59
2023/03/05 09:58:00;;;;;;;25.45;12.63;;;5.30;73.50;;;;;;4969567;28;20057;-59
2023/03/05 10:00:37;;;;;;;24.80;11.95;;;5.30;73.60;;;;;;4974102;28;20035;-59
2023/03/05 10:03:28;;;;;;;23.40;11.48;;;5.30;73.60;;;;;;4968864;28;20041;-59
2023/03/05 10:05:59;;;;;;;22.77;11.23;;;5.30;73.70;;;;;;4942922;28;20115;-58
2023/03/05 10:08:31;;;;;;;24.02;11.90;;;5.30;73.70;;;;;;4975154;28;20022;-59
2023/03/05 10:11:00;;;;;;;23.20;11.43;;;5.30;73.70;;;;;;4970273;28;20043;-60
2023/03/05 10:13:39;;;;;;;22.30;11.73;;;5.40;73.80;;;;;;4968792;28;20042;-60
2023/03/05 10:16:16;;;;;;;22.27;11.65;;;5.40;73.80;;;;;;4970079;28;20034;-60
2023/03/05 10:19:03;;;;;;;20.85;10.95;;;5.40;73.90;;;;;;4972046;28;20121;-61
2023/03/05 10:22:11;;;;;;;18.30;9.57;;;5.40;73.80;;;;;;4973527;28;20039;-59
2023/03/05 10:24:58;;;;;;;22.00;10.77;;;5.50;73.80;;;;;;4953965;28;20128;-59
2023/03/05 10:27:49;;;;;;;24.60;11.02;;;5.50;73.80;;;;;;4973575;28;20110;-60
2023/03/05 10:30:22;;;;;;;22.98;11.05;;;5.60;73.80;;;;;;4964190;28;20070;-60
2023/03/05 10:32:50;;;;;;;21.73;11.30;;;5.60;73.70;;;;;;4978145;28;20042;-59
2023/03/05 10:35:38;;;;;;;24.63;11.95;;;5.60;73.60;;;;;;4974780;28;20478;-60
2023/03/05 10:38:12;;;;;;;24.08;11.48;;;5.60;73.70;;;;;;4973459;28;20046;-58
2023/03/05 10:40:43;;;;;;;20.52;11.50;;;5.60;73.80;;;;;;4974397;28;20030;-59
2023/03/05 10:43:49;;;;;;;21.35;12.40;;;5.60;73.90;;;;;;4967757;28;20157;-58
2023/03/05 10:46:20;;;;;;;26.02;13.10;;;5.60;73.80;;;;;;4968203;28;20406;-59
2023/03/05 10:48:53;;;;;;;24.60;12.10;;;5.70;73.90;;;;;;4966634;28;20043;-60
2023/03/05 10:51:46;;;;;;;24.30;11.73;;;5.70;73.80;;;;;;4966976;28;20158;-59
2023/03/05 10:54:24;;;;;;;23.38;12.05;;;5.70;73.60;;;;;;4973844;28;20139;-60
2023/03/05 10:56:49;;;;;;;26.15;12.75;;;5.80;73.60;;;;;;4968466;28;20090;-61
2023/03/05 10:59:15;;;;;;;21.05;12.07;;;5.80;73.60;;;;;;4973666;28;20070;-59
2023/03/05 11:01:41;;;;;;;24.98;12.52;;;5.80;73.50;;;;;;4973687;28;20103;-61
2023/03/05 11:04:26;;;;;;;22.17;12.23;;;5.80;73.40;;;;;;4974220;28;20070;-62
2023/03/05 11:06:51;;;;;;;22.45;12.20;;;5.90;73.40;;;;;;4972993;28;20050;-59
2023/03/05 11:09:20;;;;;;;24.20;12.38;;;5.90;73.30;;;;;;4975091;28;20046;-61
2023/03/05 11:12:13;;;;;;;23.90;11.95;;;5.90;73.40;;;;;;4976540;28;20510;-61
2023/03/05 11:15:04;;;;;;;24.55;12.93;;;5.90;73.30;;;;;;4977792;28;20550;-61
2023/03/05 11:17:36;;;;;;;22.15;11.88;;;5.90;73.30;;;;;;4976043;28;20042;-61
2023/03/05 11:20:26;;;;;;;24.48;12.32;;;5.90;73.30;;;;;;4978460;28;20558;-61
2023/03/05 11:23:09;;;;;;;20.50;11.43;;;5.90;72.70;;;;;;4978426;28;20038;-60
2023/03/05 11:25:50;;;;;;;24.58;12.75;;;5.90;72.90;;;;;;4975671;28;20035;-61
2023/03/05 11:28:19;;;;;;;24.42;12.32;;;6.00;73.10;;;;;;4977512;28;20282;-59
2023/03/05 11:30:58;;;;;;;23.58;12.25;;;6.00;73.10;;;;;;4976550;28;20039;-62
2023/03/05 11:33:24;;;;;;;25.05;12.23;;;6.10;72.80;;;;;;4977686;28;20047;-62
2023/03/05 11:35:52;;;;;;;22.05;12.10;;;6.10;72.90;;;;;;4974568;28;20041;-60
2023/03/05 11:38:24;;;;;;;24.88;13.45;;;6.10;72.70;;;;;;4965604;28;20042;-59
2023/03/05 11:40:51;;;;;;;23.42;13.23;;;6.10;72.60;;;;;;4974631;28;20042;-57
2023/03/05 11:43:21;;;;;;;21.25;12.30;;;6.10;72.50;;;;;;4973170;28;20114;-59
2023/03/05 11:45:54;;;;;;;20.92;11.23;;;6.20;72.40;;;;;;4946651;28;20070;-60
2023/03/05 11:48:22;;;;;;;25.70;14.73;;;6.20;72.30;;;;;;4974037;28;20054;-58
2023/03/05 11:50:53;;;;;;;23.30;13.38;;;6.20;72.30;;;;;;4973333;28;20030;-61
2023/03/05 11:53:27;;;;;;;20.95;11.85;;;6.20;72.20;;;;;;4956748;28;20043;-60
2023/03/05 11:56:16;;;;;;;20.83;11.47;;;6.30;72.20;;;;;;4975855;28;20118;-58
2023/03/05 11:58:56;;;;;;;23.63;11.15;;;6.30;71.70;;;;;;4975417;28;20096;-60
2023/03/05 12:01:24;;;;;;;22.50;11.32;;;6.30;71.60;;;;;;4971320;28;20115;-60
2023/03/05 12:03:51;;;;;;;24.42;11.85;;;6.30;71.80;;;;;;4974535;28;20057;-58
2023/03/05 12:06:41;;;;;;;22.85;11.63;;;6.40;71.90;;;;;;4977055;28;20046;-60
2023/03/05 12:09:32;;;;;;;19.92;11.48;;;6.40;71.90;;;;;;4972975;28;20380;-59
2023/03/05 12:12:06;;;;;;;20.60;11.23;;;6.40;71.80;;;;;;4971640;28;20142;-61
2023/03/05 12:14:43;;;;;;;21.38;11.35;;;6.50;71.60;;;;;;4971747;28;20043;-62
2023/03/05 12:17:20;;;;;;;20.63;11.60;;;6.50;71.30;;;;;;4969753;28;20038;-61
2023/03/05 12:19:52;;;;;;;20.98;11.30;;;6.50;71.30;;;;;;4975800;28;20054;-61
2023/03/05 12:22:23;;;;;;;20.33;11.15;;;6.50;71.20;;;;;;4975313;28;20474;-61
2023/03/05 12:24:50;;;;;;;22.17;12.52;;;6.50;71.00;;;;;;4975554;28;20093;-61
2023/03/05 12:27:32;;;;;;;19.50;11.40;;;6.60;71.20;;;;;;4972646;28;20027;-60
2023/03/05 12:30:00;;;;;;;19.75;11.43;;;6.70;70.70;;;;;;4974159;28;20111;-60
2023/03/05 12:32:30;;;;;;;21.40;10.93;;;6.70;70.70;;;;;;4967917;28;20047;-60
2023/03/05 12:34:58;;;;;;;25.55;11.50;;;6.70;70.30;;;;;;4971036;28;20529;-60
2023/03/05 12:37:24;;;;;;;16.67;10.57;;;6.70;70.40;;;;;;4972371;28;20030;-60
2023/03/05 12:40:07;;;;;;;20.20;10.95;;;6.70;70.60;;;;;;4972078;28;20503;-60
2023/03/05 12:42:32;;;;;;;19.67;10.73;;;6.70;70.40;;;;;;4969927;28;20528;-61
2023/03/05 12:45:10;;;;;;;22.33;11.50;;;6.70;70.60;;;;;;4971327;28;20068;-60
2023/03/05 12:47:54;;;;;;;18.40;10.32;;;6.80;70.20;;;;;;4973498;28;20038;-59